sensor_id;sensor_type;location;lat;lon;timestamp;temperature;humidity
67054;SHT31;53960;51.826;5.850;2023-03-19T00:01:20;11.93;84.61
67054;SHT31;53960;51.826;5.850;2023-03-19T00:03:45;11.89;84.57
67054;SHT31;53960;51.826;5.850;2023-03-19T00:06:12;11.83;85.05
67054;SHT31;53960;51.826;5.850;2023-03-19T00:08:37;11.78;85.28
67054;SHT31;53960;51.826;5.850;2023-03-19T00:11:10;11.72;85.50
67054;SHT31;53960;51.826;5.850;2023-03-19T00:13:37;11.79;85.43
67054;SHT31;53960;51.826;5.850;2023-03-19T00:16:02;11.75;85.45
67054;SHT31;53960;51.826;5.850;2023-03-19T00:18:28;11.72;85.75
67054;SHT31;53960;51.826;5.850;2023-03-19T00:20:53;11.71;86.00
67054;SHT31;53960;51.826;5.850;2023-03-19T00:23:18;11.68;85.90
67054;SHT31;53960;51.826;5.850;2023-03-19T00:25:43;11.61;86.17
67054;SHT31;53960;51.826;5.850;2023-03-19T00:28:09;11.54;86.63
67054;SHT31;53960;51.826;5.850;2023-03-19T00:30:34;11.52;86.74
67054;SHT31;53960;51.826;5.850;2023-03-19T00:33:00;11.54;86.80
67054;SHT31;53960;51.826;5.850;2023-03-19T00:35:26;11.57;86.77
67054;SHT31;53960;51.826;5.850;2023-03-19T00:37:52;11.54;86.94
67054;SHT31;53960;51.826;5.850;2023-03-19T00:40:17;11.48;87.16
67054;SHT31;53960;51.826;5.850;2023-03-19T00:42:43;11.54;86.96
67054;SHT31;53960;51.826;5.850;2023-03-19T00:45:09;11.57;86.99
67054;SHT31;53960;51.826;5.850;2023-03-19T00:47:35;11.59;86.96
67054;SHT31;53960;51.826;5.850;2023-03-19T00:50:02;11.58;86.92
67054;SHT31;53960;51.826;5.850;2023-03-19T00:52:27;11.61;86.94
67054;SHT31;53960;51.826;5.850;2023-03-19T00:54:53;11.62;86.89
67054;SHT31;53960;51.826;5.850;2023-03-19T00:57:18;11.55;87.09
67054;SHT31;53960;51.826;5.850;2023-03-19T00:59:43;11.52;87.05
67054;SHT31;53960;51.826;5.850;2023-03-19T01:02:09;11.51;87.02
67054;SHT31;53960;51.826;5.850;2023-03-19T01:04:34;11.50;87.05
67054;SHT31;53960;51.826;5.850;2023-03-19T01:07:00;11.45;86.92
67054;SHT31;53960;51.826;5.850;2023-03-19T01:09:25;11.46;86.96
67054;SHT31;53960;51.826;5.850;2023-03-19T01:11:51;11.46;86.90
67054;SHT31;53960;51.826;5.850;2023-03-19T01:14:16;11.44;87.04
67054;SHT31;53960;51.826;5.850;2023-03-19T01:16:42;11.39;87.15
67054;SHT31;53960;51.826;5.850;2023-03-19T01:19:07;11.35;87.43
67054;SHT31;53960;51.826;5.850;2023-03-19T01:21:32;11.31;87.55
67054;SHT31;53960;51.826;5.850;2023-03-19T01:23:59;11.31;87.73
67054;SHT31;53960;51.826;5.850;2023-03-19T01:26:25;11.39;87.53
67054;SHT31;53960;51.826;5.850;2023-03-19T01:28:51;11.41;87.59
67054;SHT31;53960;51.826;5.850;2023-03-19T01:31:17;11.34;87.77
67054;SHT31;53960;51.826;5.850;2023-03-19T01:33:42;11.35;87.82
67054;SHT31;53960;51.826;5.850;2023-03-19T01:36:08;11.32;88.00
67054;SHT31;53960;51.826;5.850;2023-03-19T01:38:34;11.32;88.06
67054;SHT31;53960;51.826;5.850;2023-03-19T01:41:00;11.32;88.13
67054;SHT31;53960;51.826;5.850;2023-03-19T01:43:27;11.28;88.26
67054;SHT31;53960;51.826;5.850;2023-03-19T01:49:06;11.27;88.44
67054;SHT31;53960;51.826;5.850;2023-03-19T01:51:39;11.24;88.39
67054;SHT31;53960;51.826;5.850;2023-03-19T01:54:08;11.27;88.36
67054;SHT31;53960;51.826;5.850;2023-03-19T01:56:37;11.25;88.37
67054;SHT31;53960;51.826;5.850;2023-03-19T01:59:08;11.30;88.26
67054;SHT31;53960;51.826;5.850;2023-03-19T02:01:38;11.34;88.08
67054;SHT31;53960;51.826;5.850;2023-03-19T02:04:08;11.34;87.99
67054;SHT31;53960;51.826;5.850;2023-03-19T02:06:34;11.34;87.97
67054;SHT31;53960;51.826;5.850;2023-03-19T02:09:01;11.34;87.97
67054;SHT31;53960;51.826;5.850;2023-03-19T02:11:27;11.34;88.00
67054;SHT31;53960;51.826;5.850;2023-03-19T02:13:52;11.42;87.73
67054;SHT31;53960;51.826;5.850;2023-03-19T02:16:18;11.48;87.40
67054;SHT31;53960;51.826;5.850;2023-03-19T02:18:43;11.52;87.31
67054;SHT31;53960;51.826;5.850;2023-03-19T02:21:15;11.48;87.30
67054;SHT31;53960;51.826;5.850;2023-03-19T02:26:32;11.45;87.52
67054;SHT31;53960;51.826;5.850;2023-03-19T02:28:57;11.48;87.38
67054;SHT31;53960;51.826;5.850;2023-03-19T02:31:23;11.51;87.33
67054;SHT31;53960;51.826;5.850;2023-03-19T02:34:05;11.45;87.41
67054;SHT31;53960;51.826;5.850;2023-03-19T02:36:34;11.44;87.55
67054;SHT31;53960;51.826;5.850;2023-03-19T02:39:03;11.41;87.68
67054;SHT31;53960;51.826;5.850;2023-03-19T02:41:30;11.41;87.55
67054;SHT31;53960;51.826;5.850;2023-03-19T02:43:59;11.39;87.67
67054;SHT31;53960;51.826;5.850;2023-03-19T02:46:26;11.38;87.77
67054;SHT31;53960;51.826;5.850;2023-03-19T02:48:51;11.45;87.61
67054;SHT31;53960;51.826;5.850;2023-03-19T02:51:17;11.45;87.44
67054;SHT31;53960;51.826;5.850;2023-03-19T02:53:44;11.48;87.38
67054;SHT31;53960;51.826;5.850;2023-03-19T02:56:09;11.42;87.51
67054;SHT31;53960;51.826;5.850;2023-03-19T02:58:35;11.44;87.47
67054;SHT31;53960;51.826;5.850;2023-03-19T03:01:00;11.45;87.54
67054;SHT31;53960;51.826;5.850;2023-03-19T03:03:25;11.42;87.67
67054;SHT31;53960;51.826;5.850;2023-03-19T03:05:51;11.44;87.70
67054;SHT31;53960;51.826;5.850;2023-03-19T03:08:16;11.39;87.80
67054;SHT31;53960;51.826;5.850;2023-03-19T03:10:42;11.42;88.00
67054;SHT31;53960;51.826;5.850;2023-03-19T03:13:08;11.44;87.94
67054;SHT31;53960;51.826;5.850;2023-03-19T03:15:33;11.45;88.06
67054;SHT31;53960;51.826;5.850;2023-03-19T03:17:58;11.42;88.13
67054;SHT31;53960;51.826;5.850;2023-03-19T03:20:24;11.41;88.16
67054;SHT31;53960;51.826;5.850;2023-03-19T03:22:49;11.44;88.18
67054;SHT31;53960;51.826;5.850;2023-03-19T03:25:15;11.38;88.26
67054;SHT31;53960;51.826;5.850;2023-03-19T03:27:40;11.38;88.43
67054;SHT31;53960;51.826;5.850;2023-03-19T03:30:07;11.35;88.60
67054;SHT31;53960;51.826;5.850;2023-03-19T03:32:36;11.35;88.62
67054;SHT31;53960;51.826;5.850;2023-03-19T03:35:03;11.32;88.70
67054;SHT31;53960;51.826;5.850;2023-03-19T03:37:28;11.34;88.84
67054;SHT31;53960;51.826;5.850;2023-03-19T03:39:54;11.35;88.77
67054;SHT31;53960;51.826;5.850;2023-03-19T03:42:20;11.34;88.77
67054;SHT31;53960;51.826;5.850;2023-03-19T03:44:45;11.34;88.85
67054;SHT31;53960;51.826;5.850;2023-03-19T03:47:11;11.34;88.86
67054;SHT31;53960;51.826;5.850;2023-03-19T03:49:37;11.25;89.17
67054;SHT31;53960;51.826;5.850;2023-03-19T03:52:02;11.25;89.33
67054;SHT31;53960;51.826;5.850;2023-03-19T03:54:28;11.25;89.34
67054;SHT31;53960;51.826;5.850;2023-03-19T03:56:53;11.27;89.34
67054;SHT31;53960;51.826;5.850;2023-03-19T03:59:18;11.24;89.33
67054;SHT31;53960;51.826;5.850;2023-03-19T04:01:44;11.25;89.39
67054;SHT31;53960;51.826;5.850;2023-03-19T04:04:09;11.24;89.39
67054;SHT31;53960;51.826;5.850;2023-03-19T04:06:34;11.24;89.41
67054;SHT31;53960;51.826;5.850;2023-03-19T04:09:00;11.20;89.59
67054;SHT31;53960;51.826;5.850;2023-03-19T04:11:26;11.21;89.62
67054;SHT31;53960;51.826;5.850;2023-03-19T04:13:54;11.21;89.59
67054;SHT31;53960;51.826;5.850;2023-03-19T04:16:22;11.21;89.67
67054;SHT31;53960;51.826;5.850;2023-03-19T04:18:47;11.14;89.80
67054;SHT31;53960;51.826;5.850;2023-03-19T04:21:12;11.17;89.82
67054;SHT31;53960;51.826;5.850;2023-03-19T04:23:38;11.13;89.91
67054;SHT31;53960;51.826;5.850;2023-03-19T04:26:04;11.17;89.87
67054;SHT31;53960;51.826;5.850;2023-03-19T04:28:31;11.13;89.91
67054;SHT31;53960;51.826;5.850;2023-03-19T04:31:01;11.07;89.91
67054;SHT31;53960;51.826;5.850;2023-03-19T04:33:27;11.10;89.85
67054;SHT31;53960;51.826;5.850;2023-03-19T04:35:54;11.08;89.90
67054;SHT31;53960;51.826;5.850;2023-03-19T04:38:20;11.07;90.09
67054;SHT31;53960;51.826;5.850;2023-03-19T04:40:46;11.06;90.14
67054;SHT31;53960;51.826;5.850;2023-03-19T04:43:12;11.08;90.02
67054;SHT31;53960;51.826;5.850;2023-03-19T04:45:38;11.11;90.10
67054;SHT31;53960;51.826;5.850;2023-03-19T04:48:03;11.11;90.04
67054;SHT31;53960;51.826;5.850;2023-03-19T04:50:29;11.00;90.36
67054;SHT31;53960;51.826;5.850;2023-03-19T04:52:54;10.97;90.47
67054;SHT31;53960;51.826;5.850;2023-03-19T04:55:20;11.00;90.48
67054;SHT31;53960;51.826;5.850;2023-03-19T04:57:45;11.01;90.37
67054;SHT31;53960;51.826;5.850;2023-03-19T05:00:11;10.99;90.45
67054;SHT31;53960;51.826;5.850;2023-03-19T05:02:39;11.01;90.43
67054;SHT31;53960;51.826;5.850;2023-03-19T05:05:04;11.04;90.28
67054;SHT31;53960;51.826;5.850;2023-03-19T05:07:31;11.03;90.25
67054;SHT31;53960;51.826;5.850;2023-03-19T05:09:57;11.04;90.25
67054;SHT31;53960;51.826;5.850;2023-03-19T05:12:23;11.00;90.39
67054;SHT31;53960;51.826;5.850;2023-03-19T05:14:48;11.01;90.25
67054;SHT31;53960;51.826;5.850;2023-03-19T05:17:13;11.01;90.21
67054;SHT31;53960;51.826;5.850;2023-03-19T05:19:39;10.97;90.25
67054;SHT31;53960;51.826;5.850;2023-03-19T05:22:05;11.00;90.20
67054;SHT31;53960;51.826;5.850;2023-03-19T05:24:30;11.03;90.01
67054;SHT31;53960;51.826;5.850;2023-03-19T05:26:55;11.01;89.99
67054;SHT31;53960;51.826;5.850;2023-03-19T05:29:21;11.00;90.13
67054;SHT31;53960;51.826;5.850;2023-03-19T05:31:47;11.01;90.19
67054;SHT31;53960;51.826;5.850;2023-03-19T05:34:12;11.01;90.16
67054;SHT31;53960;51.826;5.850;2023-03-19T05:36:38;11.03;90.12
67054;SHT31;53960;51.826;5.850;2023-03-19T05:39:04;11.03;90.11
67054;SHT31;53960;51.826;5.850;2023-03-19T05:41:30;11.03;90.00
67054;SHT31;53960;51.826;5.850;2023-03-19T05:43:56;10.96;90.18
67054;SHT31;53960;51.826;5.850;2023-03-19T05:46:21;10.94;90.13
67054;SHT31;53960;51.826;5.850;2023-03-19T05:48:47;10.94;89.78
67054;SHT31;53960;51.826;5.850;2023-03-19T05:51:12;10.93;89.68
67054;SHT31;53960;51.826;5.850;2023-03-19T05:53:37;10.90;89.63
67054;SHT31;53960;51.826;5.850;2023-03-19T05:56:03;10.85;89.70
67054;SHT31;53960;51.826;5.850;2023-03-19T05:58:29;10.73;90.06
67054;SHT31;53960;51.826;5.850;2023-03-19T06:00:55;10.70;90.08
67054;SHT31;53960;51.826;5.850;2023-03-19T06:03:21;10.59;90.31
67054;SHT31;53960;51.826;5.850;2023-03-19T06:05:49;10.62;90.34
67054;SHT31;53960;51.826;5.850;2023-03-19T06:08:15;10.55;90.35
67054;SHT31;53960;51.826;5.850;2023-03-19T06:10:41;10.41;90.93
67054;SHT31;53960;51.826;5.850;2023-03-19T06:13:06;10.42;91.00
67054;SHT31;53960;51.826;5.850;2023-03-19T06:15:32;10.39;91.05
67054;SHT31;53960;51.826;5.850;2023-03-19T06:17:57;10.42;90.92
67054;SHT31;53960;51.826;5.850;2023-03-19T06:20:22;10.41;90.82
67054;SHT31;53960;51.826;5.850;2023-03-19T06:22:48;10.42;90.91
67054;SHT31;53960;51.826;5.850;2023-03-19T06:25:13;10.46;90.71
67054;SHT31;53960;51.826;5.850;2023-03-19T06:27:39;10.39;90.88
67054;SHT31;53960;51.826;5.850;2023-03-19T06:30:04;10.46;90.78
67054;SHT31;53960;51.826;5.850;2023-03-19T06:32:30;10.50;90.71
67054;SHT31;53960;51.826;5.850;2023-03-19T06:34:56;10.52;90.60
67054;SHT31;53960;51.826;5.850;2023-03-19T06:37:21;10.53;90.53
67054;SHT31;53960;51.826;5.850;2023-03-19T06:39:47;10.56;90.53
67054;SHT31;53960;51.826;5.850;2023-03-19T06:42:13;10.52;90.62
67054;SHT31;53960;51.826;5.850;2023-03-19T06:44:38;10.49;90.61
67054;SHT31;53960;51.826;5.850;2023-03-19T06:47:04;10.49;90.69
67054;SHT31;53960;51.826;5.850;2023-03-19T06:49:29;10.46;90.61
67054;SHT31;53960;51.826;5.850;2023-03-19T06:51:54;10.50;90.53
67054;SHT31;53960;51.826;5.850;2023-03-19T06:54:20;10.60;90.48
67054;SHT31;53960;51.826;5.850;2023-03-19T06:56:45;10.66;90.41
67054;SHT31;53960;51.826;5.850;2023-03-19T06:59:11;10.72;90.41
67054;SHT31;53960;51.826;5.850;2023-03-19T07:01:40;10.74;90.42
67054;SHT31;53960;51.826;5.850;2023-03-19T07:04:07;10.80;90.33
67054;SHT31;53960;51.826;5.850;2023-03-19T07:06:33;10.83;90.27
67054;SHT31;53960;51.826;5.850;2023-03-19T07:08:59;10.85;90.34
67054;SHT31;53960;51.826;5.850;2023-03-19T07:11:24;10.90;90.27
67054;SHT31;53960;51.826;5.850;2023-03-19T07:13:50;10.93;90.25
67054;SHT31;53960;51.826;5.850;2023-03-19T07:16:15;10.94;90.24
67054;SHT31;53960;51.826;5.850;2023-03-19T07:18:40;11.00;90.19
67054;SHT31;53960;51.826;5.850;2023-03-19T07:21:06;11.03;90.08
67054;SHT31;53960;51.826;5.850;2023-03-19T07:23:31;11.01;90.01
67054;SHT31;53960;51.826;5.850;2023-03-19T07:25:56;11.06;89.76
67054;SHT31;53960;51.826;5.850;2023-03-19T07:28:22;11.06;89.87
67054;SHT31;53960;51.826;5.850;2023-03-19T07:30:50;11.08;89.75
67054;SHT31;53960;51.826;5.850;2023-03-19T07:33:16;11.10;89.56
67054;SHT31;53960;51.826;5.850;2023-03-19T07:35:41;11.11;89.77
67054;SHT31;53960;51.826;5.850;2023-03-19T07:38:06;11.14;89.63
67054;SHT31;53960;51.826;5.850;2023-03-19T07:40:32;11.17;89.61
67054;SHT31;53960;51.826;5.850;2023-03-19T07:42:57;11.18;89.50
67054;SHT31;53960;51.826;5.850;2023-03-19T07:45:22;11.23;89.44
67054;SHT31;53960;51.826;5.850;2023-03-19T07:47:51;11.27;89.19
67054;SHT31;53960;51.826;5.850;2023-03-19T07:50:16;11.24;89.26
67054;SHT31;53960;51.826;5.850;2023-03-19T07:52:47;11.25;89.50
67054;SHT31;53960;51.826;5.850;2023-03-19T07:55:13;11.28;89.70
67054;SHT31;53960;51.826;5.850;2023-03-19T07:57:39;11.35;89.72
67054;SHT31;53960;51.826;5.850;2023-03-19T08:00:05;11.50;89.29
67054;SHT31;53960;51.826;5.850;2023-03-19T08:02:31;11.55;88.95
67054;SHT31;53960;51.826;5.850;2023-03-19T08:04:56;11.66;88.84
67054;SHT31;53960;51.826;5.850;2023-03-19T08:07:22;11.68;88.63
67054;SHT31;53960;51.826;5.850;2023-03-19T08:09:48;11.71;88.71
67054;SHT31;53960;51.826;5.850;2023-03-19T08:12:13;11.73;88.95
67054;SHT31;53960;51.826;5.850;2023-03-19T08:14:39;11.81;88.66
67054;SHT31;53960;51.826;5.850;2023-03-19T08:17:04;11.83;87.92
67054;SHT31;53960;51.826;5.850;2023-03-19T08:19:30;11.83;87.91
67054;SHT31;53960;51.826;5.850;2023-03-19T08:21:56;11.86;87.96
67054;SHT31;53960;51.826;5.850;2023-03-19T08:24:21;11.93;87.64
67054;SHT31;53960;51.826;5.850;2023-03-19T08:26:47;11.92;87.01
67054;SHT31;53960;51.826;5.850;2023-03-19T08:29:12;12.02;86.90
67054;SHT31;53960;51.826;5.850;2023-03-19T08:31:37;12.10;87.04
67054;SHT31;53960;51.826;5.850;2023-03-19T08:34:03;12.16;86.52
67054;SHT31;53960;51.826;5.850;2023-03-19T08:36:29;12.17;86.35
67054;SHT31;53960;51.826;5.850;2023-03-19T08:38:55;12.17;85.06
67054;SHT31;53960;51.826;5.850;2023-03-19T08:41:21;12.10;84.73
67054;SHT31;53960;51.826;5.850;2023-03-19T08:43:46;12.09;84.30
67054;SHT31;53960;51.826;5.850;2023-03-19T08:46:12;12.03;84.23
67054;SHT31;53960;51.826;5.850;2023-03-19T08:48:37;12.06;84.89
67054;SHT31;53960;51.826;5.850;2023-03-19T08:51:03;12.10;84.54
67054;SHT31;53960;51.826;5.850;2023-03-19T08:53:29;12.13;85.10
67054;SHT31;53960;51.826;5.850;2023-03-19T08:55:57;12.16;85.30
67054;SHT31;53960;51.826;5.850;2023-03-19T08:58:23;12.24;85.24
67054;SHT31;53960;51.826;5.850;2023-03-19T09:00:49;12.37;84.05
67054;SHT31;53960;51.826;5.850;2023-03-19T09:03:15;12.40;83.51
67054;SHT31;53960;51.826;5.850;2023-03-19T09:05:41;12.41;82.51
67054;SHT31;53960;51.826;5.850;2023-03-19T09:08:07;12.42;82.69
67054;SHT31;53960;51.826;5.850;2023-03-19T09:10:33;12.47;82.43
67054;SHT31;53960;51.826;5.850;2023-03-19T09:12:58;12.52;82.89
67054;SHT31;53960;51.826;5.850;2023-03-19T09:15:24;12.60;82.75
67054;SHT31;53960;51.826;5.850;2023-03-19T09:17:50;12.67;82.17
67054;SHT31;53960;51.826;5.850;2023-03-19T09:20:15;12.69;81.33
67054;SHT31;53960;51.826;5.850;2023-03-19T09:22:41;12.72;81.67
67054;SHT31;53960;51.826;5.850;2023-03-19T09:25:07;12.69;81.05
67054;SHT31;53960;51.826;5.850;2023-03-19T09:27:32;12.65;80.85
67054;SHT31;53960;51.826;5.850;2023-03-19T09:29:58;12.57;81.42
67054;SHT31;53960;51.826;5.850;2023-03-19T09:32:23;12.58;81.36
67054;SHT31;53960;51.826;5.850;2023-03-19T09:34:49;12.52;81.57
67054;SHT31;53960;51.826;5.850;2023-03-19T09:37:14;12.50;81.93
67054;SHT31;53960;51.826;5.850;2023-03-19T09:39:39;12.47;81.99
67054;SHT31;53960;51.826;5.850;2023-03-19T09:44:58;12.54;81.74
67054;SHT31;53960;51.826;5.850;2023-03-19T09:47:34;12.55;81.86
67054;SHT31;53960;51.826;5.850;2023-03-19T09:50:04;12.61;81.56
67054;SHT31;53960;51.826;5.850;2023-03-19T09:55:43;12.78;81.20
67054;SHT31;53960;51.826;5.850;2023-03-19T09:58:16;12.82;81.42
67054;SHT31;53960;51.826;5.850;2023-03-19T10:00:43;12.98;80.42
67054;SHT31;53960;51.826;5.850;2023-03-19T10:15:21;13.08;80.35
67054;SHT31;53960;51.826;5.850;2023-03-19T10:18:16;13.13;79.06
67054;SHT31;53960;51.826;5.850;2023-03-19T10:24:20;13.29;79.82
67054;SHT31;53960;51.826;5.850;2023-03-19T10:26:27;13.35;79.76
67054;SHT31;53960;51.826;5.850;2023-03-19T10:29:15;13.44;78.92
67054;SHT31;53960;51.826;5.850;2023-03-19T10:34:37;13.64;79.06
67054;SHT31;53960;51.826;5.850;2023-03-19T10:37:19;13.75;78.07
67054;SHT31;53960;51.826;5.850;2023-03-19T10:39:47;13.81;77.54
67054;SHT31;53960;51.826;5.850;2023-03-19T10:45:14;13.64;77.43
67054;SHT31;53960;51.826;5.850;2023-03-19T10:47:43;13.61;78.04
67054;SHT31;53960;51.826;5.850;2023-03-19T10:50:17;13.64;77.58
67054;SHT31;53960;51.826;5.850;2023-03-19T10:52:44;13.67;76.96
67054;SHT31;53960;51.826;5.850;2023-03-19T10:55:16;13.74;76.74
67054;SHT31;53960;51.826;5.850;2023-03-19T10:57:43;13.77;76.87
67054;SHT31;53960;51.826;5.850;2023-03-19T11:00:23;13.82;77.32
67054;SHT31;53960;51.826;5.850;2023-03-19T11:02:51;13.88;76.63
67054;SHT31;53960;51.826;5.850;2023-03-19T11:05:22;13.92;76.40
67054;SHT31;53960;51.826;5.850;2023-03-19T11:07:49;14.02;76.40
67054;SHT31;53960;51.826;5.850;2023-03-19T11:10:16;14.07;75.51
67054;SHT31;53960;51.826;5.850;2023-03-19T11:12:51;14.08;75.93
67054;SHT31;53960;51.826;5.850;2023-03-19T11:15:23;14.05;76.09
67054;SHT31;53960;51.826;5.850;2023-03-19T11:17:58;14.12;75.72
67054;SHT31;53960;51.826;5.850;2023-03-19T11:20:33;14.19;75.87
67054;SHT31;53960;51.826;5.850;2023-03-19T11:23:00;14.28;75.62
67054;SHT31;53960;51.826;5.850;2023-03-19T11:25:38;14.35;74.76
67054;SHT31;53960;51.826;5.850;2023-03-19T11:28:16;14.49;74.83
67054;SHT31;53960;51.826;5.850;2023-03-19T11:30:51;14.43;73.78
67054;SHT31;53960;51.826;5.850;2023-03-19T11:33:35;14.57;74.31
67054;SHT31;53960;51.826;5.850;2023-03-19T11:47:06;14.62;74.22
67054;SHT31;53960;51.826;5.850;2023-03-19T11:49:59;14.70;73.99
67054;SHT31;53960;51.826;5.850;2023-03-19T11:52:57;14.57;74.10
67054;SHT31;53960;51.826;5.850;2023-03-19T11:55:47;14.52;73.92
67054;SHT31;53960;51.826;5.850;2023-03-19T12:04:06;14.43;76.42
67054;SHT31;53960;51.826;5.850;2023-03-19T12:07:25;14.28;77.96
67054;SHT31;53960;51.826;5.850;2023-03-19T12:15:37;13.92;79.89
67054;SHT31;53960;51.826;5.850;2023-03-19T12:23:58;14.33;79.22
67054;SHT31;53960;51.826;5.850;2023-03-19T12:27:14;14.42;78.64
67054;SHT31;53960;51.826;5.850;2023-03-19T12:32:36;14.40;78.11
67054;SHT31;53960;51.826;5.850;2023-03-19T12:35:10;14.24;78.57
67054;SHT31;53960;51.826;5.850;2023-03-19T12:37:45;14.28;78.66
67054;SHT31;53960;51.826;5.850;2023-03-19T12:40:34;14.28;78.12
67054;SHT31;53960;51.826;5.850;2023-03-19T12:43:05;14.30;78.18
67054;SHT31;53960;51.826;5.850;2023-03-19T12:48:04;14.39;77.83
67054;SHT31;53960;51.826;5.850;2023-03-19T12:50:32;14.45;77.96
67054;SHT31;53960;51.826;5.850;2023-03-19T12:53:00;14.53;76.44
67054;SHT31;53960;51.826;5.850;2023-03-19T12:55:36;14.53;74.54
67054;SHT31;53960;51.826;5.850;2023-03-19T13:03:10;14.72;75.23
67054;SHT31;53960;51.826;5.850;2023-03-19T13:05:47;14.81;74.23
67054;SHT31;53960;51.826;5.850;2023-03-19T13:11:07;14.72;75.19
67054;SHT31;53960;51.826;5.850;2023-03-19T13:16:42;14.73;74.36
67054;SHT31;53960;51.826;5.850;2023-03-19T13:21:34;14.80;74.97
67054;SHT31;53960;51.826;5.850;2023-03-19T13:24:04;14.81;74.12
67054;SHT31;53960;51.826;5.850;2023-03-19T13:26:32;14.87;74.63
67054;SHT31;53960;51.826;5.850;2023-03-19T13:29:01;14.98;74.27
67054;SHT31;53960;51.826;5.850;2023-03-19T13:31:35;14.98;73.73
67054;SHT31;53960;51.826;5.850;2023-03-19T13:34:06;14.97;74.21
67054;SHT31;53960;51.826;5.850;2023-03-19T13:36:43;14.93;74.56
67054;SHT31;53960;51.826;5.850;2023-03-19T13:39:16;14.87;74.65
67054;SHT31;53960;51.826;5.850;2023-03-19T13:46:54;14.73;74.68
67054;SHT31;53960;51.826;5.850;2023-03-19T13:49:35;14.75;75.00
67054;SHT31;53960;51.826;5.850;2023-03-19T13:54:39;14.75;75.03
67054;SHT31;53960;51.826;5.850;2023-03-19T13:57:16;14.73;75.43
67054;SHT31;53960;51.826;5.850;2023-03-19T13:59:45;14.72;75.15
67054;SHT31;53960;51.826;5.850;2023-03-19T14:04:51;14.67;75.12
67054;SHT31;53960;51.826;5.850;2023-03-19T14:07:23;14.76;75.31
67054;SHT31;53960;51.826;5.850;2023-03-19T14:10:05;14.77;74.94
67054;SHT31;53960;51.826;5.850;2023-03-19T14:17:43;14.87;75.13
67054;SHT31;53960;51.826;5.850;2023-03-19T14:25:25;15.16;74.08
67054;SHT31;53960;51.826;5.850;2023-03-19T14:28:09;15.18;73.01
67054;SHT31;53960;51.826;5.850;2023-03-19T14:30:45;15.20;72.97
67054;SHT31;53960;51.826;5.850;2023-03-19T14:33:41;15.14;73.01
67054;SHT31;53960;51.826;5.850;2023-03-19T14:36:12;15.17;73.25
67054;SHT31;53960;51.826;5.850;2023-03-19T14:38:50;15.11;72.86
67054;SHT31;53960;51.826;5.850;2023-03-19T14:41:20;15.07;73.45
67054;SHT31;53960;51.826;5.850;2023-03-19T14:44:08;15.03;72.97
67054;SHT31;53960;51.826;5.850;2023-03-19T14:50:24;15.06;73.15
67054;SHT31;53960;51.826;5.850;2023-03-19T14:52:57;15.06;73.22
67054;SHT31;53960;51.826;5.850;2023-03-19T14:55:31;15.00;74.29
67054;SHT31;53960;51.826;5.850;2023-03-19T14:57:59;14.86;75.19
67054;SHT31;53960;51.826;5.850;2023-03-19T15:00:25;14.75;74.99
67054;SHT31;53960;51.826;5.850;2023-03-19T15:02:51;14.67;75.28
67054;SHT31;53960;51.826;5.850;2023-03-19T15:05:31;14.57;75.58
67054;SHT31;53960;51.826;5.850;2023-03-19T15:08:03;14.57;75.66
67054;SHT31;53960;51.826;5.850;2023-03-19T15:10:34;14.53;75.30
67054;SHT31;53960;51.826;5.850;2023-03-19T15:16:46;14.48;75.92
67054;SHT31;53960;51.826;5.850;2023-03-19T15:19:22;14.46;75.93
67054;SHT31;53960;51.826;5.850;2023-03-19T15:21:48;14.48;75.79
67054;SHT31;53960;51.826;5.850;2023-03-19T15:24:16;14.43;75.80
67054;SHT31;53960;51.826;5.850;2023-03-19T15:26:42;14.36;75.43
67054;SHT31;53960;51.826;5.850;2023-03-19T15:29:07;14.30;75.74
67054;SHT31;53960;51.826;5.850;2023-03-19T15:31:44;14.30;75.77
67054;SHT31;53960;51.826;5.850;2023-03-19T15:34:21;14.39;75.77
67054;SHT31;53960;51.826;5.850;2023-03-19T15:36:50;14.40;75.92
67054;SHT31;53960;51.826;5.850;2023-03-19T15:39:18;14.38;75.53
67054;SHT31;53960;51.826;5.850;2023-03-19T15:41:46;14.40;74.74
67054;SHT31;53960;51.826;5.850;2023-03-19T15:44:19;14.39;74.05
67054;SHT31;53960;51.826;5.850;2023-03-19T15:46:47;14.39;74.19
67054;SHT31;53960;51.826;5.850;2023-03-19T15:49:24;14.35;74.44
67054;SHT31;53960;51.826;5.850;2023-03-19T15:51:55;14.35;74.67
67054;SHT31;53960;51.826;5.850;2023-03-19T15:54:21;14.30;74.59
67054;SHT31;53960;51.826;5.850;2023-03-19T15:56:49;14.33;74.79
67054;SHT31;53960;51.826;5.850;2023-03-19T15:59:16;14.30;74.63
67054;SHT31;53960;51.826;5.850;2023-03-19T16:01:42;14.18;75.27
67054;SHT31;53960;51.826;5.850;2023-03-19T16:04:13;14.08;75.85
67054;SHT31;53960;51.826;5.850;2023-03-19T16:06:40;13.98;76.44
67054;SHT31;53960;51.826;5.850;2023-03-19T16:09:14;14.00;76.62
67054;SHT31;53960;51.826;5.850;2023-03-19T16:11:43;14.01;76.67
67054;SHT31;53960;51.826;5.850;2023-03-19T16:16:44;13.85;76.58
67054;SHT31;53960;51.826;5.850;2023-03-19T16:19:35;13.84;76.47
67054;SHT31;53960;51.826;5.850;2023-03-19T16:22:04;13.85;76.55
67054;SHT31;53960;51.826;5.850;2023-03-19T16:24:37;13.92;76.53
67054;SHT31;53960;51.826;5.850;2023-03-19T16:27:06;13.90;76.20
67054;SHT31;53960;51.826;5.850;2023-03-19T16:29:40;13.88;76.10
67054;SHT31;53960;51.826;5.850;2023-03-19T16:32:20;13.90;75.49
67054;SHT31;53960;51.826;5.850;2023-03-19T16:34:52;13.87;75.56
67054;SHT31;53960;51.826;5.850;2023-03-19T16:42:46;13.73;76.01
67054;SHT31;53960;51.826;5.850;2023-03-19T16:47:39;13.78;74.26
67054;SHT31;53960;51.826;5.850;2023-03-19T16:50:04;13.81;73.46
67054;SHT31;53960;51.826;5.850;2023-03-19T16:52:30;13.80;73.10
67054;SHT31;53960;51.826;5.850;2023-03-19T16:54:57;13.75;72.92
67054;SHT31;53960;51.826;5.850;2023-03-19T16:57:23;13.71;73.67
67054;SHT31;53960;51.826;5.850;2023-03-19T16:59:48;13.68;74.32
67054;SHT31;53960;51.826;5.850;2023-03-19T17:02:16;13.66;74.68
67054;SHT31;53960;51.826;5.850;2023-03-19T17:04:41;13.66;74.82
67054;SHT31;53960;51.826;5.850;2023-03-19T17:07:07;13.57;75.31
67054;SHT31;53960;51.826;5.850;2023-03-19T17:09:33;13.47;75.91
67054;SHT31;53960;51.826;5.850;2023-03-19T17:11:59;13.38;76.61
67054;SHT31;53960;51.826;5.850;2023-03-19T17:14:25;13.35;76.91
67054;SHT31;53960;51.826;5.850;2023-03-19T17:16:51;13.33;77.30
67054;SHT31;53960;51.826;5.850;2023-03-19T17:19:19;13.27;77.81
67054;SHT31;53960;51.826;5.850;2023-03-19T17:21:46;13.22;78.64
67054;SHT31;53960;51.826;5.850;2023-03-19T17:24:26;13.19;79.01
67054;SHT31;53960;51.826;5.850;2023-03-19T17:26:52;13.20;78.73
67054;SHT31;53960;51.826;5.850;2023-03-19T17:29:19;13.23;78.16
67054;SHT31;53960;51.826;5.850;2023-03-19T17:31:45;13.13;78.42
67054;SHT31;53960;51.826;5.850;2023-03-19T17:36:38;13.02;78.40
67054;SHT31;53960;51.826;5.850;2023-03-19T17:39:04;12.91;78.61